Time;durP1;ratioP1;P1;durP2;ratioP2;P2;SDS_P1;SDS_P2;PMS_P1;PMS_P2;Temp;Humidity;BMP_temperature;BMP_pressure;BME280_temperature;BME280_humidity;BME280_pressure;Samples;Min_cycle;Max_cycle;Signal;HPM_P1;HPM_P2
2022/12/03 00:00:37;;;;;;;9.88;9.10;;;;;;;;;;4971850;28;20054;-62
2022/12/03 00:03:03;;;;;;;9.63;8.93;;;;;;;;;;4978300;28;20172;-62
2022/12/03 00:05:28;;;;;;;9.93;8.40;;;;;;;;;;4977909;28;20081;-62
2022/12/03 00:07:53;;;;;;;9.30;8.63;;;;;;;;;;4977833;28;20424;-62
2022/12/03 00:10:19;;;;;;;9.27;8.57;;;;;;;;;;4977361;28;20038;-62
2022/12/03 00:12:44;;;;;;;8.43;7.80;;;;;;;;;;4980110;28;20417;-62
2022/12/03 00:15:10;;;;;;;9.55;8.82;;;;;;;;;;4978027;28;20057;-62
2022/12/03 00:17:36;;;;;;;9.27;8.48;;;;;;;;;;4979224;28;20038;-62
2022/12/03 00:20:01;;;;;;;9.10;8.50;;;;;;;;;;4978730;28;20129;-62
2022/12/03 00:22:27;;;;;;;9.40;8.80;;;;;;;;;;4978390;28;20034;-62
2022/12/03 00:24:52;;;;;;;9.55;8.65;;;;;;;;;;4975322;28;20128;-62
2022/12/03 00:27:17;;;;;;;8.60;8.00;;;;;;;;;;4979187;28;20617;-62
2022/12/03 00:29:43;;;;;;;9.20;8.32;;;;;;;;;;4978044;28;20026;-62
2022/12/03 00:32:08;;;;;;;8.75;8.15;;;;;;;;;;4979071;28;20027;-62
2022/12/03 00:34:33;;;;;;;9.35;8.68;;;;;;;;;;4977690;28;20057;-62
2022/12/03 00:36:59;;;;;;;8.88;8.18;;;;;;;;;;4975298;28;20058;-62
2022/12/03 00:39:24;;;;;;;8.80;8.18;;;;;;;;;;4975802;28;20035;-62
2022/12/03 00:41:49;;;;;;;9.07;8.38;;;;;;;;;;4977322;28;20066;-62
2022/12/03 00:44:15;;;;;;;8.75;8.15;;;;;;;;;;4974867;28;20037;-62
2022/12/03 00:46:40;;;;;;;9.77;8.88;;;;;;;;;;4975416;28;20062;-62
2022/12/03 00:49:06;;;;;;;9.07;8.38;;;;;;;;;;4974900;28;20114;-62
2022/12/03 00:51:31;;;;;;;10.48;9.63;;;;;;;;;;4975204;28;20197;-62
2022/12/03 00:53:56;;;;;;;9.55;8.85;;;;;;;;;;4975358;28;20042;-62
2022/12/03 00:56:22;;;;;;;8.43;7.85;;;;;;;;;;4974093;28;20042;-62
2022/12/03 00:58:47;;;;;;;9.80;9.00;;;;;;;;;;4975538;28;20030;-62
2022/12/03 01:01:13;;;;;;;15.43;9.10;;;;;;;;;;4976830;28;20038;-62
2022/12/03 01:03:38;;;;;;;10.40;9.60;;;;;;;;;;4976208;28;20042;-62
2022/12/03 01:06:03;;;;;;;9.85;9.15;;;;;;;;;;4982141;28;20050;-62
2022/12/03 01:08:29;;;;;;;8.10;7.60;;;;;;;;;;4975329;28;20034;-62
2022/12/03 01:10:54;;;;;;;10.25;9.35;;;;;;;;;;4976776;28;20030;-62
2022/12/03 01:13:19;;;;;;;9.52;8.80;;;;;;;;;;4973298;28;20042;-62
2022/12/03 01:15:45;;;;;;;9.05;8.35;;;;;;;;;;4976557;28;20097;-62
2022/12/03 01:18:10;;;;;;;9.30;8.55;;;;;;;;;;4974627;28;20034;-63
2022/12/03 01:20:37;;;;;;;9.95;9.07;;;;;;;;;;4978258;28;20047;-62
2022/12/03 01:23:03;;;;;;;9.48;8.77;;;;;;;;;;4973921;28;20533;-62
2022/12/03 01:25:28;;;;;;;8.70;8.10;;;;;;;;;;4974733;28;20043;-62
2022/12/03 01:27:53;;;;;;;10.45;9.55;;;;;;;;;;4977405;28;20094;-62
2022/12/03 01:30:19;;;;;;;10.10;8.98;;;;;;;;;;4973009;28;20707;-62
2022/12/03 01:32:44;;;;;;;8.02;7.53;;;;;;;;;;4992058;28;20057;-62
2022/12/03 01:35:10;;;;;;;9.70;8.68;;;;;;;;;;4976156;28;20038;-62
2022/12/03 01:37:35;;;;;;;8.25;7.60;;;;;;;;;;4976372;28;20420;-62
2022/12/03 01:40:00;;;;;;;8.25;7.65;;;;;;;;;;4979950;28;20034;-62
2022/12/03 01:42:29;;;;;;;9.00;8.35;;;;;;;;;;4976571;28;20034;-62
2022/12/03 01:44:58;;;;;;;9.52;8.32;;;;;;;;;;4976943;28;20035;-62
2022/12/03 01:47:28;;;;;;;9.80;9.07;;;;;;;;;;4976242;28;20604;-62
2022/12/03 01:49:59;;;;;;;10.03;9.20;;;;;;;;;;4975578;28;20046;-62
2022/12/03 01:52:30;;;;;;;16.58;9.95;;;;;;;;;;4979245;28;20658;-62
2022/12/03 01:55:06;;;;;;;11.18;10.30;;;;;;;;;;4976387;28;20038;-62
2022/12/03 01:57:44;;;;;;;9.88;9.07;;;;;;;;;;4974773;28;20066;-62
2022/12/03 02:00:14;;;;;;;12.05;10.93;;;;;;;;;;4973916;28;20093;-62
2022/12/03 02:02:40;;;;;;;9.25;8.50;;;;;;;;;;4977260;28;20795;-62
2022/12/03 02:05:18;;;;;;;10.18;9.38;;;;;;;;;;4977515;28;20034;-62
2022/12/03 02:07:43;;;;;;;11.15;10.13;;;;;;;;;;4972184;28;20169;-62
2022/12/03 02:10:11;;;;;;;9.57;8.68;;;;;;;;;;4974186;28;20638;-62
2022/12/03 02:12:51;;;;;;;9.65;8.82;;;;;;;;;;4974367;28;20034;-62
2022/12/03 02:15:17;;;;;;;9.23;8.63;;;;;;;;;;4975472;28;20038;-62
2022/12/03 02:17:42;;;;;;;10.25;9.23;;;;;;;;;;4976076;28;20039;-62
2022/12/03 02:20:10;;;;;;;9.60;8.80;;;;;;;;;;4973983;28;20043;-62
2022/12/03 02:22:40;;;;;;;9.98;9.20;;;;;;;;;;4973339;28;20049;-62
2022/12/03 02:25:25;;;;;;;8.63;7.95;;;;;;;;;;4972790;28;20062;-62
2022/12/03 02:27:53;;;;;;;10.02;9.05;;;;;;;;;;4972006;28;20053;-62
2022/12/03 02:30:20;;;;;;;10.45;9.43;;;;;;;;;;4977697;28;20054;-62
2022/12/03 02:32:47;;;;;;;8.75;7.88;;;;;;;;;;4973158;28;20089;-62
2022/12/03 02:35:25;;;;;;;9.93;9.02;;;;;;;;;;4974251;28;20034;-62
2022/12/03 02:37:57;;;;;;;8.88;8.07;;;;;;;;;;4976446;28;20069;-62
2022/12/03 02:40:27;;;;;;;9.45;8.68;;;;;;;;;;4974875;28;20041;-62
2022/12/03 02:42:57;;;;;;;10.32;8.52;;;;;;;;;;4976467;28;20851;-62
2022/12/03 02:45:35;;;;;;;12.07;9.43;;;;;;;;;;4974313;28;20104;-61
2022/12/03 02:48:14;;;;;;;10.63;9.55;;;;;;;;;;4972872;28;20525;-62
2022/12/03 02:50:42;;;;;;;9.82;8.80;;;;;;;;;;4975585;28;20066;-62
2022/12/03 02:53:17;;;;;;;8.15;7.55;;;;;;;;;;4974939;28;20044;-62
2022/12/03 02:55:44;;;;;;;9.05;8.38;;;;;;;;;;4975162;28;20532;-62
2022/12/03 02:58:10;;;;;;;8.43;7.82;;;;;;;;;;4974459;28;20030;-62
2022/12/03 03:00:36;;;;;;;8.85;8.05;;;;;;;;;;4974513;28;20044;-62
2022/12/03 03:03:03;;;;;;;11.05;9.70;;;;;;;;;;4976832;28;20048;-62
2022/12/03 03:05:29;;;;;;;9.02;8.40;;;;;;;;;;4973986;28;20034;-62
2022/12/03 03:07:57;;;;;;;8.25;7.65;;;;;;;;;;4974747;28;20026;-62
2022/12/03 03:10:23;;;;;;;10.88;9.77;;;;;;;;;;4976034;28;20038;-62
2022/12/03 03:12:51;;;;;;;9.95;9.05;;;;;;;;;;4976478;28;20983;-62
2022/12/03 03:15:17;;;;;;;8.77;8.10;;;;;;;;;;4975215;28;20041;-62
2022/12/03 03:17:43;;;;;;;8.50;7.80;;;;;;;;;;4974491;28;20034;-61
2022/12/03 03:20:09;;;;;;;9.85;9.05;;;;;;;;;;4973089;28;20042;-62
2022/12/03 03:22:38;;;;;;;8.98;8.27;;;;;;;;;;4975451;28;20108;-62
2022/12/03 03:25:06;;;;;;;8.70;8.00;;;;;;;;;;4974674;28;20066;-62
2022/12/03 03:27:32;;;;;;;9.38;8.57;;;;;;;;;;4972662;28;20050;-62
2022/12/03 03:29:58;;;;;;;9.05;8.13;;;;;;;;;;4974222;28;20060;-61
2022/12/03 03:32:25;;;;;;;9.68;8.27;;;;;;;;;;4974729;28;21406;-62
2022/12/03 03:34:51;;;;;;;11.27;8.35;;;;;;;;;;4974938;28;20445;-62
2022/12/03 03:37:16;;;;;;;10.07;9.32;;;;;;;;;;4974029;28;20058;-62
2022/12/03 03:39:42;;;;;;;10.52;9.73;;;;;;;;;;4973709;28;20069;-62
2022/12/03 03:42:08;;;;;;;9.45;8.70;;;;;;;;;;4974041;28;20034;-62
2022/12/03 03:44:34;;;;;;;9.52;8.75;;;;;;;;;;4975532;28;20392;-62
2022/12/03 03:46:59;;;;;;;8.98;8.35;;;;;;;;;;4975156;28;20034;-62
2022/12/03 03:49:25;;;;;;;9.10;8.35;;;;;;;;;;4970064;28;20084;-61
2022/12/03 03:51:50;;;;;;;8.68;8.07;;;;;;;;;;4975349;28;20027;-61
2022/12/03 03:54:16;;;;;;;9.73;8.68;;;;;;;;;;4976986;28;20473;-61
2022/12/03 03:56:41;;;;;;;8.63;8.02;;;;;;;;;;4973336;28;20035;-60
2022/12/03 03:59:07;;;;;;;9.68;8.98;;;;;;;;;;4972682;28;20030;-61
2022/12/03 04:01:32;;;;;;;9.80;9.10;;;;;;;;;;4974564;28;20613;-60
2022/12/03 04:03:58;;;;;;;8.75;8.13;;;;;;;;;;4971756;28;20372;-61
2022/12/03 04:06:25;;;;;;;9.95;8.75;;;;;;;;;;4975246;28;20034;-61
2022/12/03 04:08:50;;;;;;;9.43;8.73;;;;;;;;;;4973023;28;20038;-62
2022/12/03 04:14:13;;;;;;;8.88;8.23;;;;;;;;;;4970785;28;20900;-61
2022/12/03 04:16:39;;;;;;;8.45;7.80;;;;;;;;;;4972601;28;20110;-61
2022/12/03 04:19:04;;;;;;;8.80;8.18;;;;;;;;;;4972377;28;20441;-61
2022/12/03 04:24:13;;;;;;;9.93;8.93;;;;;;;;;;4973735;28;20384;-61
2022/12/03 04:29:22;;;;;;;8.50;7.90;;;;;;;;;;4975441;28;20039;-61
2022/12/03 04:37:16;;;;;;;9.60;8.93;;;;;;;;;;4973401;28;20118;-61
2022/12/03 04:39:42;;;;;;;9.55;8.75;;;;;;;;;;4977120;28;20110;-61
2022/12/03 04:42:07;;;;;;;8.98;8.27;;;;;;;;;;4977875;28;20034;-61
2022/12/03 04:44:36;;;;;;;10.63;8.18;;;;;;;;;;4976346;28;20038;-61
2022/12/03 04:47:06;;;;;;;14.75;8.23;;;;;;;;;;4977785;28;20109;-61
2022/12/03 04:49:33;;;;;;;8.80;8.20;;;;;;;;;;4976423;28;20050;-61
2022/12/03 04:51:59;;;;;;;9.57;7.80;;;;;;;;;;4979362;28;20030;-61
2022/12/03 04:54:25;;;;;;;8.57;7.97;;;;;;;;;;4976848;28;20089;-61
2022/12/03 04:56:50;;;;;;;8.52;7.82;;;;;;;;;;4976631;28;20122;-61
2022/12/03 04:59:16;;;;;;;8.38;7.68;;;;;;;;;;4974682;28;20400;-61
2022/12/03 05:01:41;;;;;;;7.70;7.10;;;;;;;;;;4976992;28;20039;-61
2022/12/03 05:04:07;;;;;;;7.97;7.45;;;;;;;;;;4978178;28;20038;-61
2022/12/03 05:06:32;;;;;;;7.97;7.38;;;;;;;;;;4976383;28;20511;-61
2022/12/03 05:08:58;;;;;;;7.80;7.30;;;;;;;;;;4977690;28;20479;-61
2022/12/03 05:11:23;;;;;;;9.18;8.25;;;;;;;;;;4972981;28;20790;-61
2022/12/03 05:13:50;;;;;;;9.30;8.35;;;;;;;;;;4976957;28;20435;-61
2022/12/03 05:16:15;;;;;;;9.05;8.35;;;;;;;;;;4977525;28;20044;-61
2022/12/03 05:18:41;;;;;;;8.55;7.88;;;;;;;;;;4974322;28;20034;-61
2022/12/03 05:21:06;;;;;;;7.10;6.60;;;;;;;;;;4978792;28;20041;-61
2022/12/03 05:23:31;;;;;;;8.65;7.85;;;;;;;;;;4976932;28;20038;-61
2022/12/03 05:25:57;;;;;;;8.70;8.10;;;;;;;;;;4975878;28;20495;-61
2022/12/03 05:28:23;;;;;;;8.50;7.90;;;;;;;;;;4975964;28;20166;-60
2022/12/03 05:30:49;;;;;;;9.18;8.38;;;;;;;;;;4975709;28;20038;-61
2022/12/03 05:33:15;;;;;;;8.10;7.53;;;;;;;;;;4975209;28;20089;-61
2022/12/03 05:35:40;;;;;;;7.43;6.93;;;;;;;;;;4975323;28;20480;-61
2022/12/03 05:38:05;;;;;;;7.75;7.25;;;;;;;;;;4975871;28;20029;-61
2022/12/03 05:40:31;;;;;;;7.85;7.35;;;;;;;;;;4977797;28;20039;-61
2022/12/03 05:42:56;;;;;;;7.65;7.13;;;;;;;;;;4978499;28;20027;-61
2022/12/03 05:45:29;;;;;;;9.25;8.52;;;;;;;;;;4975158;28;20042;-61
2022/12/03 05:47:55;;;;;;;7.93;7.32;;;;;;;;;;4975426;28;20041;-61
2022/12/03 05:50:23;;;;;;;9.00;8.35;;;;;;;;;;4973739;28;20026;-61
2022/12/03 05:52:49;;;;;;;9.43;8.73;;;;;;;;;;4977880;28;20364;-61
2022/12/03 05:55:14;;;;;;;7.80;7.30;;;;;;;;;;4973888;28;20030;-61
2022/12/03 05:57:40;;;;;;;8.65;8.05;;;;;;;;;;4977821;28;20045;-61
2022/12/03 06:00:10;;;;;;;8.70;8.10;;;;;;;;;;4978158;28;20030;-61
2022/12/03 06:02:35;;;;;;;7.63;7.13;;;;;;;;;;4975144;28;20039;-61
2022/12/03 06:05:01;;;;;;;8.45;7.85;;;;;;;;;;4977009;28;20026;-61
2022/12/03 06:07:26;;;;;;;8.90;8.13;;;;;;;;;;4974288;28;20122;-61
2022/12/03 06:09:51;;;;;;;8.27;7.68;;;;;;;;;;4974967;28;20664;-61
2022/12/03 06:12:17;;;;;;;8.65;7.97;;;;;;;;;;4975266;28;20038;-61
2022/12/03 06:14:42;;;;;;;8.05;7.45;;;;;;;;;;4977024;28;20069;-61
2022/12/03 06:17:07;;;;;;;8.38;7.63;;;;;;;;;;4978196;28;20034;-61
2022/12/03 06:19:33;;;;;;;7.75;7.25;;;;;;;;;;4974129;28;20038;-61
2022/12/03 06:21:58;;;;;;;8.52;7.78;;;;;;;;;;4975570;28;20046;-61
2022/12/03 06:24:23;;;;;;;8.40;7.80;;;;;;;;;;4977257;28;20037;-61
2022/12/03 06:26:49;;;;;;;8.07;7.50;;;;;;;;;;4976000;28;20041;-61
2022/12/03 06:29:14;;;;;;;8.88;8.18;;;;;;;;;;4974172;28;20445;-61
2022/12/03 06:31:39;;;;;;;10.07;9.32;;;;;;;;;;4971667;28;20604;-61
2022/12/03 06:34:05;;;;;;;8.50;7.90;;;;;;;;;;4976843;28;20073;-61
2022/12/03 06:36:30;;;;;;;7.85;7.25;;;;;;;;;;4975545;28;20038;-61
2022/12/03 06:38:56;;;;;;;9.02;8.35;;;;;;;;;;4976517;28;20037;-61
2022/12/03 06:41:21;;;;;;;9.82;9.05;;;;;;;;;;4975509;28;20120;-61
2022/12/03 06:43:46;;;;;;;8.57;7.88;;;;;;;;;;4977235;28;20034;-61
2022/12/03 06:46:12;;;;;;;8.68;8.07;;;;;;;;;;4976850;28;20464;-62
2022/12/03 06:48:37;;;;;;;8.43;7.88;;;;;;;;;;4974672;28;20045;-61
2022/12/03 06:51:02;;;;;;;8.38;7.80;;;;;;;;;;4971624;28;20038;-62
2022/12/03 06:53:28;;;;;;;8.77;8.18;;;;;;;;;;4977662;28;20132;-63
2022/12/03 06:55:53;;;;;;;10.40;8.57;;;;;;;;;;4971847;28;20114;-63
2022/12/03 06:58:18;;;;;;;9.10;8.40;;;;;;;;;;4969753;28;20066;-63
2022/12/03 07:00:44;;;;;;;8.02;7.43;;;;;;;;;;4972152;28;20104;-63
2022/12/03 07:03:09;;;;;;;8.13;7.53;;;;;;;;;;4973225;28;20030;-63
2022/12/03 07:05:34;;;;;;;9.35;8.55;;;;;;;;;;4974197;28;20678;-63
2022/12/03 07:08:00;;;;;;;8.02;7.38;;;;;;;;;;4971858;28;20835;-63
2022/12/03 07:10:25;;;;;;;8.32;7.72;;;;;;;;;;4972385;28;20049;-63
2022/12/03 07:12:51;;;;;;;9.60;8.70;;;;;;;;;;4973657;28;20457;-63
2022/12/03 07:15:16;;;;;;;7.63;7.07;;;;;;;;;;4973680;28;20093;-63
2022/12/03 07:17:42;;;;;;;9.45;8.65;;;;;;;;;;4973668;28;20045;-63
2022/12/03 07:20:08;;;;;;;8.23;7.63;;;;;;;;;;4979856;28;20039;-62
2022/12/03 07:22:33;;;;;;;10.45;9.52;;;;;;;;;;4975276;28;20036;-63
2022/12/03 07:24:59;;;;;;;10.02;9.13;;;;;;;;;;4975455;28;20026;-63
2022/12/03 07:27:24;;;;;;;8.57;7.88;;;;;;;;;;4971093;28;20093;-61
2022/12/03 07:29:49;;;;;;;8.57;7.93;;;;;;;;;;4971909;28;20053;-63
2022/12/03 07:32:15;;;;;;;8.73;8.10;;;;;;;;;;4973847;28;20372;-62
2022/12/03 07:34:40;;;;;;;8.32;7.72;;;;;;;;;;4973470;28;20030;-62
2022/12/03 07:37:06;;;;;;;9.18;8.50;;;;;;;;;;4972378;28;20034;-61
2022/12/03 07:39:31;;;;;;;8.50;7.82;;;;;;;;;;4971198;28;20108;-61
2022/12/03 07:41:56;;;;;;;8.57;7.90;;;;;;;;;;4972008;28;20035;-62
2022/12/03 07:44:22;;;;;;;8.38;7.72;;;;;;;;;;4973013;28;20524;-63
2022/12/03 07:46:47;;;;;;;8.10;7.50;;;;;;;;;;4976481;28;20034;-62
2022/12/03 07:49:13;;;;;;;7.65;7.15;;;;;;;;;;4972969;28;20034;-62
2022/12/03 07:51:38;;;;;;;8.82;8.23;;;;;;;;;;4970918;28;20524;-62
2022/12/03 07:54:04;;;;;;;9.32;8.68;;;;;;;;;;4976467;28;20113;-61
2022/12/03 07:56:29;;;;;;;9.27;8.57;;;;;;;;;;4972551;28;20966;-62
2022/12/03 07:58:55;;;;;;;9.10;8.50;;;;;;;;;;4973701;28;20121;-62
2022/12/03 08:01:20;;;;;;;9.20;8.50;;;;;;;;;;4979448;28;20042;-63
2022/12/03 08:03:46;;;;;;;7.68;7.18;;;;;;;;;;4970515;28;20648;-61
2022/12/03 08:06:11;;;;;;;7.60;7.10;;;;;;;;;;4967057;28;20050;-62
2022/12/03 08:08:37;;;;;;;9.38;8.57;;;;;;;;;;4973899;28;20035;-62
2022/12/03 08:11:02;;;;;;;7.68;7.15;;;;;;;;;;4973373;28;20057;-62
2022/12/03 08:13:28;;;;;;;8.85;8.20;;;;;;;;;;4971751;28;20467;-62
2022/12/03 08:15:59;;;;;;;8.63;8.02;;;;;;;;;;4972763;28;20070;-62
2022/12/03 08:18:24;;;;;;;;;;;;;;;;;;4971345;28;20049;-63
2022/12/03 08:20:50;;;;;;;9.20;8.48;;;;;;;;;;4971902;28;19918;-62
2022/12/03 08:23:21;;;;;;;8.75;8.13;;;;;;;;;;4978865;28;20030;-62
2022/12/03 08:25:48;;;;;;;8.63;8.02;;;;;;;;;;4980077;28;20057;-61
2022/12/03 08:28:22;;;;;;;8.88;8.18;;;;;;;;;;4976227;28;20073;-63
2022/12/03 08:31:16;;;;;;;9.27;8.18;;;;;;;;;;4979954;28;20030;-62
2022/12/03 08:33:42;;;;;;;9.32;8.52;;;;;;;;;;4978308;28;20035;-62
2022/12/03 08:36:24;;;;;;;9.07;8.30;;;;;;;;;;4976725;28;20809;-63
2022/12/03 08:38:53;;;;;;;9.00;8.32;;;;;;;;;;4974005;28;20030;-63
2022/12/03 08:42:40;;;;;;;9.05;8.35;;;;;;;;;;4975656;28;20057;-62
2022/12/03 08:44:25;;;;;;;7.30;6.80;;;;;;;;;;4978285;28;20125;-63
2022/12/03 08:47:13;;;;;;;9.40;8.50;;;;;;;;;;4975776;28;20031;-62
2022/12/03 08:49:39;;;;;;;10.50;9.70;;;;;;;;;;4975219;28;20032;-63
2022/12/03 08:52:15;;;;;;;9.13;8.35;;;;;;;;;;4976472;28;20033;-63
2022/12/03 08:54:41;;;;;;;8.98;8.38;;;;;;;;;;4980658;28;20038;-63
2022/12/03 08:57:36;;;;;;;10.50;9.63;;;;;;;;;;4977174;28;20030;-62
2022/12/03 09:00:22;;;;;;;9.13;8.43;;;;;;;;;;4979005;28;20050;-63
2022/12/03 09:02:52;;;;;;;8.98;8.10;;;;;;;;;;4976090;28;20034;-63
2022/12/03 09:05:19;;;;;;;9.18;8.48;;;;;;;;;;4975945;28;20031;-63
2022/12/03 09:07:44;;;;;;;9.95;9.07;;;;;;;;;;4975372;28;20038;-64
2022/12/03 09:10:10;;;;;;;12.07;8.13;;;;;;;;;;4976913;28;20686;-63
2022/12/03 09:12:35;;;;;;;11.45;8.68;;;;;;;;;;4976271;28;20073;-63
2022/12/03 09:15:00;;;;;;;9.80;8.90;;;;;;;;;;4981109;28;20460;-63
2022/12/03 09:17:26;;;;;;;8.45;7.85;;;;;;;;;;4975718;28;20053;-63
2022/12/03 09:19:51;;;;;;;8.90;8.13;;;;;;;;;;4974733;28;20026;-63
2022/12/03 09:22:17;;;;;;;8.80;8.20;;;;;;;;;;4975160;28;20588;-62
2022/12/03 09:24:43;;;;;;;9.98;9.07;;;;;;;;;;4973487;28;20064;-63
2022/12/03 09:27:08;;;;;;;8.20;7.60;;;;;;;;;;4989085;28;20130;-63
2022/12/03 09:29:33;;;;;;;9.32;8.57;;;;;;;;;;4975906;28;20158;-62
2022/12/03 09:31:59;;;;;;;9.75;8.98;;;;;;;;;;4976054;28;20101;-62
2022/12/03 09:34:24;;;;;;;8.60;8.00;;;;;;;;;;4974731;28;20034;-61
2022/12/03 09:36:49;;;;;;;11.70;10.77;;;;;;;;;;4977983;28;20109;-63
2022/12/03 09:39:15;;;;;;;8.98;8.27;;;;;;;;;;4974442;28;20026;-63
2022/12/03 09:41:40;;;;;;;10.18;9.38;;;;;;;;;;4974132;28;20358;-62
2022/12/03 09:44:06;;;;;;;11.00;10.15;;;;;;;;;;4978870;28;20022;-63
2022/12/03 09:46:33;;;;;;;9.30;8.65;;;;;;;;;;4976623;28;20583;-62
2022/12/03 09:49:00;;;;;;;9.65;8.82;;;;;;;;;;4981114;28;20031;-64
2022/12/03 09:51:30;;;;;;;10.02;9.32;;;;;;;;;;4975549;28;20050;-63
2022/12/03 09:54:04;;;;;;;10.68;9.90;;;;;;;;;;4975303;28;20039;-63
2022/12/03 09:56:30;;;;;;;9.63;8.93;;;;;;;;;;4974187;28;20030;-63
2022/12/03 09:58:55;;;;;;;10.13;9.23;;;;;;;;;;4972907;28;20026;-63
2022/12/03 10:01:21;;;;;;;10.68;9.65;;;;;;;;;;4976831;28;20039;-63
2022/12/03 10:03:50;;;;;;;10.48;9.65;;;;;;;;;;4976885;28;20078;-63
2022/12/03 10:06:21;;;;;;;9.68;8.98;;;;;;;;;;4975537;28;20536;-63
2022/12/03 10:08:48;;;;;;;;;;;;;;;;;;4976505;28;20043;-62
2022/12/03 10:11:15;;;;;;;9.63;8.93;;;;;;;;;;4973284;28;19997;-63
2022/12/03 10:13:41;;;;;;;9.13;8.50;;;;;;;;;;4975852;28;20061;-63
2022/12/03 10:16:12;;;;;;;10.25;9.55;;;;;;;;;;4978173;28;20430;-63
2022/12/03 10:18:40;;;;;;;9.68;8.98;;;;;;;;;;4973882;28;20089;-62
2022/12/03 10:21:18;;;;;;;10.00;9.30;;;;;;;;;;4972986;28;20051;-62
2022/12/03 10:23:45;;;;;;;10.00;9.30;;;;;;;;;;4972057;28;20444;-65
2022/12/03 10:26:11;;;;;;;9.57;8.90;;;;;;;;;;4972118;28;20470;-64
2022/12/03 10:28:39;;;;;;;9.77;9.10;;;;;;;;;;4972719;28;20035;-64
2022/12/03 10:31:07;;;;;;;8.77;8.18;;;;;;;;;;4974313;28;20062;-64
2022/12/03 10:33:35;;;;;;;10.63;9.90;;;;;;;;;;4977598;28;20107;-64
2022/12/03 10:36:14;;;;;;;11.18;10.30;;;;;;;;;;4975483;28;20027;-62
2022/12/03 10:38:40;;;;;;;9.80;9.02;;;;;;;;;;4972532;28;20068;-64
2022/12/03 10:41:26;;;;;;;10.40;9.60;;;;;;;;;;4974356;28;20069;-61
2022/12/03 10:43:51;;;;;;;10.45;9.52;;;;;;;;;;4975656;28;20630;-64
2022/12/03 10:46:19;;;;;;;10.48;9.68;;;;;;;;;;4974255;28;20045;-65
2022/12/03 10:49:06;;;;;;;10.20;9.50;;;;;;;;;;4974865;28;20364;-62
2022/12/03 10:51:31;;;;;;;9.88;9.25;;;;;;;;;;4975227;28;20468;-63
2022/12/03 10:53:57;;;;;;;11.88;10.98;;;;;;;;;;4970702;28;20046;-64
2022/12/03 10:56:24;;;;;;;11.18;10.13;;;;;;;;;;4974545;28;20043;-64
2022/12/03 10:58:51;;;;;;;9.85;9.15;;;;;;;;;;4973331;28;20027;-64
2022/12/03 11:01:20;;;;;;;10.27;9.30;;;;;;;;;;4975038;28;20479;-63
2022/12/03 11:03:46;;;;;;;11.63;10.63;;;;;;;;;;4974187;28;20467;-64
2022/12/03 11:06:17;;;;;;;10.50;9.60;;;;;;;;;;4973723;28;20030;-64
2022/12/03 11:08:44;;;;;;;;;;;;;;;;;;4975477;28;20030;-64
2022/12/03 11:11:23;;;;;;;10.20;9.30;;;;;;;;;;4974776;28;19924;-64
2022/12/03 11:13:49;;;;;;;9.35;8.65;;;;;;;;;;4975264;28;20043;-64
2022/12/03 11:16:39;;;;;;;11.32;10.50;;;;;;;;;;4972332;28;20405;-63
2022/12/03 11:19:11;;;;;;;10.52;9.82;;;;;;;;;;4975050;28;20035;-63
2022/12/03 11:22:02;;;;;;;10.25;9.55;;;;;;;;;;4973078;28;20038;-62
2022/12/03 11:24:27;;;;;;;12.45;11.40;;;;;;;;;;4970764;28;20961;-64
2022/12/03 11:26:52;;;;;;;11.18;10.35;;;;;;;;;;4972321;28;20038;-64
2022/12/03 11:29:48;;;;;;;10.60;9.82;;;;;;;;;;4971740;28;20038;-63
2022/12/03 11:32:41;;;;;;;11.00;10.05;;;;;;;;;;4973265;28;20080;-64
2022/12/03 11:35:07;;;;;;;13.23;12.10;;;;;;;;;;4974306;28;20027;-64
2022/12/03 11:37:32;;;;;;;9.93;9.18;;;;;;;;;;4973683;28;20760;-63
2022/12/03 11:40:00;;;;;;;11.75;10.75;;;;;;;;;;4973475;28;20042;-63
2022/12/03 11:42:27;;;;;;;10.10;9.40;;;;;;;;;;4972526;28;20440;-63
2022/12/03 11:45:05;;;;;;;10.45;9.65;;;;;;;;;;4973726;28;20042;-63
2022/12/03 11:47:58;;;;;;;11.85;10.95;;;;;;;;;;4973670;28;20516;-63
2022/12/03 11:50:37;;;;;;;10.02;9.32;;;;;;;;;;4972271;28;20201;-64
2022/12/03 11:53:12;;;;;;;10.63;9.82;;;;;;;;;;4982331;28;20035;-63
2022/12/03 11:55:43;;;;;;;10.07;9.38;;;;;;;;;;4976986;28;20049;-64
2022/12/03 11:58:24;;;;;;;11.77;10.98;;;;;;;;;;4977151;28;20051;-63
2022/12/03 12:00:51;;;;;;;9.88;9.23;;;;;;;;;;4980136;28;20065;-64
2022/12/03 12:03:29;;;;;;;10.52;9.82;;;;;;;;;;4978754;28;20796;-64
2022/12/03 12:06:15;;;;;;;9.82;9.13;;;;;;;;;;4978713;28;20038;-64
2022/12/03 12:08:55;;;;;;;9.85;9.15;;;;;;;;;;4978559;28;20464;-64
2022/12/03 12:11:30;;;;;;;12.25;11.35;;;;;;;;;;4975730;28;20046;-64
2022/12/03 12:14:05;;;;;;;9.93;9.23;;;;;;;;;;4980708;28;20088;-64
2022/12/03 12:16:50;;;;;;;12.15;11.00;;;;;;;;;;4981116;28;20706;-63
2022/12/03 12:19:42;;;;;;;11.60;10.48;;;;;;;;;;4975517;28;20042;-63
2022/12/03 12:22:21;;;;;;;11.07;10.27;;;;;;;;;;4977707;28;20483;-63
2022/12/03 12:24:55;;;;;;;10.00;9.20;;;;;;;;;;4980102;28;20031;-63
2022/12/03 12:27:44;;;;;;;10.93;10.13;;;;;;;;;;4977720;28;20030;-63
2022/12/03 12:30:20;;;;;;;11.23;10.23;;;;;;;;;;4977188;28;20042;-62
2022/12/03 12:32:56;;;;;;;11.65;10.73;;;;;;;;;;4981164;28;20030;-63
2022/12/03 12:35:29;;;;;;;11.32;10.52;;;;;;;;;;4978178;28;20038;-63
2022/12/03 12:38:07;;;;;;;11.15;10.02;;;;;;;;;;4977448;28;20038;-63
2022/12/03 12:40:39;;;;;;;10.07;9.38;;;;;;;;;;4978774;28;20038;-64
2022/12/03 12:43:20;;;;;;;14.07;10.98;;;;;;;;;;4977673;28;20043;-63
2022/12/03 12:45:45;;;;;;;10.88;9.88;;;;;;;;;;4977182;28;20030;-64
2022/12/03 12:48:23;;;;;;;10.65;9.95;;;;;;;;;;4978771;28;20034;-64
2022/12/03 12:50:58;;;;;;;10.40;9.65;;;;;;;;;;4976526;28;20043;-64
2022/12/03 12:53:32;;;;;;;10.55;9.57;;;;;;;;;;4977625;28;20061;-64
2022/12/03 12:55:59;;;;;;;10.77;9.98;;;;;;;;;;4976574;28;20042;-64
2022/12/03 12:58:26;;;;;;;11.02;10.23;;;;;;;;;;4975400;28;20046;-64
2022/12/03 13:01:05;;;;;;;12.18;11.27;;;;;;;;;;4977264;28;20077;-63
2022/12/03 13:03:33;;;;;;;11.45;10.70;;;;;;;;;;4979563;28;20034;-64
2022/12/03 13:06:01;;;;;;;13.93;12.73;;;;;;;;;;4976631;28;20034;-63
2022/12/03 13:08:30;;;;;;;10.95;9.93;;;;;;;;;;4974786;28;20061;-64
2022/12/03 13:11:01;;;;;;;10.95;10.10;;;;;;;;;;4977706;28;20034;-63
2022/12/03 13:13:41;;;;;;;11.07;10.18;;;;;;;;;;4975718;28;20053;-64
2022/12/03 13:16:27;;;;;;;11.48;10.25;;;;;;;;;;4976272;28;20038;-63
2022/12/03 13:18:57;;;;;;;12.00;10.90;;;;;;;;;;4974622;28;20076;-63
2022/12/03 13:21:36;;;;;;;11.77;10.93;;;;;;;;;;4978069;28;20142;-64
2022/12/03 13:24:24;;;;;;;11.65;10.75;;;;;;;;;;4977927;28;20110;-64
2022/12/03 13:26:50;;;;;;;10.68;9.88;;;;;;;;;;4974447;28;20050;-62
2022/12/03 13:29:18;;;;;;;11.88;10.98;;;;;;;;;;4976277;28;20038;-63
2022/12/03 13:32:01;;;;;;;11.98;11.13;;;;;;;;;;4975318;28;20040;-64
2022/12/03 13:34:32;;;;;;;11.20;10.35;;;;;;;;;;4974766;28;20071;-64
2022/12/03 13:37:00;;;;;;;12.07;11.02;;;;;;;;;;4977041;28;20060;-65
2022/12/03 13:39:35;;;;;;;11.35;10.45;;;;;;;;;;4970075;28;20118;-64
2022/12/03 13:42:37;;;;;;;14.02;13.02;;;;;;;;;;4975925;28;20035;-64
2022/12/03 13:45:23;;;;;;;;;;;;;;;;;;4978755;28;20042;-65
2022/12/03 13:48:12;;;;;;;11.98;10.90;;;;;;;;;;4974833;28;20045;-61
2022/12/03 13:50:45;;;;;;;12.60;11.63;;;;;;;;;;4976817;28;20818;-65
2022/12/03 13:53:35;;;;;;;10.13;9.40;;;;;;;;;;4979436;28;20065;-65
2022/12/03 13:56:25;;;;;;;10.40;9.60;;;;;;;;;;4976848;28;20468;-64
2022/12/03 13:58:50;;;;;;;10.93;10.13;;;;;;;;;;4977420;28;20116;-64
2022/12/03 14:01:16;;;;;;;10.60;9.68;;;;;;;;;;4975185;28;20121;-64
2022/12/03 14:03:41;;;;;;;10.80;10.02;;;;;;;;;;4978668;28;20103;-64
2022/12/03 14:06:06;;;;;;;11.23;10.45;;;;;;;;;;4977042;28;20098;-64
2022/12/03 14:08:32;;;;;;;11.73;10.88;;;;;;;;;;4977044;28;20478;-64
2022/12/03 14:10:57;;;;;;;10.88;10.07;;;;;;;;;;4975693;28;20042;-64
2022/12/03 14:13:22;;;;;;;11.05;10.25;;;;;;;;;;4977832;28;20042;-64
2022/12/03 14:15:48;;;;;;;12.30;11.40;;;;;;;;;;4975352;28;20035;-64
2022/12/03 14:18:13;;;;;;;12.05;11.07;;;;;;;;;;4972832;28;20490;-63
2022/12/03 14:20:38;;;;;;;10.70;9.85;;;;;;;;;;4977421;28;20089;-63
2022/12/03 14:23:04;;;;;;;11.43;10.60;;;;;;;;;;4975915;28;20056;-62
2022/12/03 14:25:29;;;;;;;12.38;11.48;;;;;;;;;;4973405;28;20089;-65
2022/12/03 14:27:54;;;;;;;12.55;11.50;;;;;;;;;;4975066;28;20042;-63
2022/12/03 14:30:20;;;;;;;11.70;10.73;;;;;;;;;;4978919;28;20076;-65
2022/12/03 14:32:46;;;;;;;12.27;11.40;;;;;;;;;;4975765;28;20114;-64
2022/12/03 14:35:11;;;;;;;13.82;12.57;;;;;;;;;;4977532;28;20415;-65
2022/12/03 14:37:37;;;;;;;14.27;12.98;;;;;;;;;;4975402;28;20038;-64
2022/12/03 14:40:03;;;;;;;11.20;10.40;;;;;;;;;;4977002;28;20071;-64
2022/12/03 14:42:28;;;;;;;11.95;11.05;;;;;;;;;;4977398;28;20034;-64
2022/12/03 14:44:54;;;;;;;12.02;11.13;;;;;;;;;;4976454;28;20369;-64
2022/12/03 14:47:21;;;;;;;11.70;10.80;;;;;;;;;;4977375;28;20034;-64
2022/12/03 14:49:47;;;;;;;13.27;12.18;;;;;;;;;;4975931;28;20103;-64
2022/12/03 14:52:12;;;;;;;12.30;11.38;;;;;;;;;;4977206;28;20034;-64
2022/12/03 14:54:38;;;;;;;13.23;12.02;;;;;;;;;;4974882;28;20424;-64
2022/12/03 14:57:03;;;;;;;12.52;11.43;;;;;;;;;;4977714;28;20125;-63
2022/12/03 14:59:29;;;;;;;11.93;11.02;;;;;;;;;;4973982;28;20543;-64